createdAt,value
2018-05-31T00:02:20.811Z,3.13
2018-05-31T00:04:48.804Z,2.13
2018-05-31T00:07:16.844Z,3.00
2018-05-31T00:09:44.830Z,2.63
2018-05-31T00:12:12.834Z,2.67
2018-05-31T00:14:40.909Z,2.63
2018-05-31T00:17:09.194Z,2.03
2018-05-31T00:19:37.174Z,2.70
2018-05-31T00:22:05.178Z,10.33
2018-05-31T00:24:33.159Z,3.13
2018-05-31T00:27:01.153Z,12.67
2018-05-31T00:29:29.233Z,9.10
2018-05-31T00:31:57.186Z,5.67
2018-05-31T00:34:25.213Z,4.10
2018-05-31T00:36:53.242Z,3.30
2018-05-31T00:39:21.254Z,3.27
2018-05-31T00:41:49.356Z,2.67
2018-05-31T00:44:17.479Z,3.67
2018-05-31T00:46:45.542Z,3.03
2018-05-31T00:49:13.548Z,3.37
2018-05-31T00:51:41.638Z,3.33
2018-05-31T00:54:09.638Z,3.00
2018-05-31T00:56:37.694Z,3.37
2018-05-31T00:59:05.651Z,4.00
2018-05-31T01:01:33.693Z,4.00
2018-05-31T01:04:01.721Z,2.93
2018-05-31T01:06:29.745Z,3.13
2018-05-31T01:08:57.803Z,3.70
2018-05-31T01:11:25.874Z,3.80
2018-05-31T01:13:53.906Z,3.77
2018-05-31T01:16:21.923Z,3.40
2018-05-31T01:18:50.384Z,2.60
2018-05-31T01:21:18.393Z,2.53
2018-05-31T01:23:46.375Z,2.73
2018-05-31T01:26:14.477Z,2.83
2018-05-31T01:28:42.495Z,3.30
2018-05-31T01:31:10.550Z,2.83
2018-05-31T01:33:38.560Z,2.67
2018-05-31T01:36:06.596Z,3.10
2018-05-31T01:38:34.694Z,3.53
2018-05-31T01:41:02.753Z,2.57
2018-05-31T01:43:30.734Z,2.83
2018-05-31T01:45:58.740Z,3.20
2018-05-31T01:48:26.826Z,4.07
2018-05-31T01:50:54.857Z,3.70
2018-05-31T01:53:22.893Z,3.53
2018-05-31T01:55:50.887Z,3.60
2018-05-31T01:58:18.866Z,3.23
2018-05-31T02:00:46.899Z,3.27
2018-05-31T02:03:14.889Z,3.17
2018-05-31T02:05:42.902Z,3.33
2018-05-31T02:08:10.922Z,3.63
2018-05-31T02:10:38.966Z,3.00
2018-05-31T02:13:07.028Z,3.60
2018-05-31T02:15:35.102Z,3.30
2018-05-31T02:18:03.154Z,3.07
2018-05-31T02:20:31.648Z,4.37
2018-05-31T02:22:59.655Z,3.20
2018-05-31T02:25:27.722Z,4.47
2018-05-31T02:27:55.756Z,3.10
2018-05-31T02:30:23.744Z,3.30
2018-05-31T02:32:51.790Z,3.63
2018-05-31T02:35:19.713Z,3.80
2018-05-31T02:37:47.770Z,3.70
2018-05-31T02:40:15.943Z,4.23
2018-05-31T02:42:43.929Z,3.33
2018-05-31T02:45:12.030Z,3.03
2018-05-31T02:47:40.124Z,3.30
2018-05-31T02:50:08.139Z,3.27
2018-05-31T02:52:36.242Z,3.50
2018-05-31T02:55:04.269Z,3.40
2018-05-31T02:57:32.379Z,3.40
2018-05-31T03:00:00.449Z,3.37
2018-05-31T03:02:28.466Z,3.60
2018-05-31T03:04:56.551Z,3.80
2018-05-31T03:07:24.616Z,3.10
2018-05-31T03:09:52.650Z,3.60
2018-05-31T03:12:20.668Z,4.27
2018-05-31T03:14:48.694Z,3.70
2018-05-31T03:17:16.727Z,4.00
2018-05-31T03:19:44.751Z,4.13
2018-05-31T03:22:13.213Z,3.63
2018-05-31T03:24:41.235Z,3.67
2018-05-31T03:27:09.313Z,3.43
2018-05-31T03:29:37.314Z,3.53
2018-05-31T03:32:05.316Z,3.50
2018-05-31T03:34:33.327Z,3.80
2018-05-31T03:37:01.351Z,4.33
2018-05-31T03:39:29.343Z,3.63
2018-05-31T03:41:57.321Z,4.10
2018-05-31T03:44:25.366Z,4.40
2018-05-31T03:46:53.363Z,3.27
2018-05-31T03:49:21.839Z,3.13
2018-05-31T03:51:50.315Z,4.30
2018-05-31T03:54:18.978Z,3.60
2018-05-31T03:56:46.976Z,3.20
2018-05-31T03:59:15.745Z,3.33
2018-05-31T04:01:44.285Z,4.07
2018-05-31T04:04:12.709Z,3.43
2018-05-31T04:06:41.388Z,3.60
2018-05-31T04:09:09.964Z,3.73
2018-05-31T04:11:39.471Z,3.67
2018-05-31T04:14:08.157Z,4.03
2018-05-31T04:16:36.659Z,3.13
2018-05-31T04:19:05.221Z,6.20
2018-05-31T04:21:33.818Z,4.83
2018-05-31T04:24:02.479Z,4.90
2018-05-31T04:26:30.891Z,5.40
2018-05-31T04:28:59.467Z,4.13
2018-05-31T04:31:28.138Z,4.23
2018-05-31T04:33:56.430Z,5.03
2018-05-31T04:36:24.996Z,5.97
2018-05-31T04:38:53.664Z,5.73
2018-05-31T04:41:21.970Z,5.90
2018-05-31T04:43:50.769Z,5.27
2018-05-31T04:46:19.339Z,6.80
2018-05-31T04:48:48.223Z,4.80
2018-05-31T04:51:17.010Z,5.10
2018-05-31T04:53:45.838Z,4.57
2018-05-31T04:56:14.210Z,4.30
2018-05-31T04:58:42.728Z,5.93
2018-05-31T05:01:11.235Z,6.10
2018-05-31T05:03:39.881Z,5.33
2018-05-31T05:06:08.504Z,7.03
2018-05-31T05:08:36.781Z,5.40
2018-05-31T05:11:05.763Z,5.57
2018-05-31T05:13:34.347Z,6.00
2018-05-31T05:16:02.755Z,4.73
2018-05-31T05:18:31.204Z,5.10
2018-05-31T05:20:59.990Z,5.93
2018-05-31T05:23:28.437Z,5.87
2018-05-31T05:25:57.382Z,6.00
2018-05-31T05:28:25.691Z,4.83
2018-05-31T05:30:54.141Z,5.60
2018-05-31T05:33:22.601Z,4.40
2018-05-31T05:35:50.642Z,5.20
2018-05-31T05:38:18.735Z,4.77
2018-05-31T05:40:46.762Z,6.70
2018-05-31T05:43:14.827Z,6.10
2018-05-31T05:45:42.858Z,4.57
2018-05-31T05:48:10.888Z,5.40
2018-05-31T05:50:38.940Z,4.27
2018-05-31T05:53:07.009Z,6.33
2018-05-31T05:55:35.060Z,5.63
2018-05-31T05:58:03.106Z,4.33
2018-05-31T06:00:31.206Z,4.50
2018-05-31T06:02:59.234Z,4.53
2018-05-31T06:05:27.285Z,4.40
2018-05-31T06:07:55.347Z,4.40
2018-05-31T06:10:23.397Z,4.13
2018-05-31T06:12:51.460Z,3.50
2018-05-31T06:15:19.501Z,4.13
2018-05-31T06:17:47.580Z,3.77
2018-05-31T06:20:15.642Z,4.73
2018-05-31T06:22:43.691Z,3.60
2018-05-31T06:25:11.835Z,4.40
2018-05-31T06:27:40.337Z,4.80
2018-05-31T06:30:08.434Z,3.80
2018-05-31T06:32:36.634Z,3.40
2018-05-31T06:35:04.759Z,3.60
2018-05-31T06:37:32.919Z,4.10
2018-05-31T06:40:01.089Z,4.10
2018-05-31T06:42:29.163Z,4.70
2018-05-31T06:44:57.183Z,22.60
2018-05-31T06:47:25.302Z,8.40
2018-05-31T06:49:53.785Z,5.80
2018-05-31T06:52:21.812Z,4.20
2018-05-31T06:54:49.863Z,6.20
2018-05-31T06:57:17.932Z,5.00
2018-05-31T06:59:45.978Z,3.93
2018-05-31T07:02:14.013Z,3.23
2018-05-31T07:04:42.003Z,2.57
2018-05-31T07:07:10.070Z,3.90
2018-05-31T07:09:38.096Z,2.57
2018-05-31T07:12:06.220Z,3.57
2018-05-31T07:14:34.263Z,3.90
2018-05-31T07:17:02.284Z,3.20
2018-05-31T07:19:30.325Z,4.03
2018-05-31T07:21:58.310Z,3.93
2018-05-31T07:24:26.333Z,3.90
2018-05-31T07:26:54.361Z,2.73
2018-05-31T07:29:22.871Z,3.50
2018-05-31T07:31:50.898Z,3.30
2018-05-31T07:34:18.897Z,2.20
2018-05-31T07:36:46.906Z,3.13
2018-05-31T07:39:14.898Z,3.03
2018-05-31T07:41:42.881Z,2.27
2018-05-31T07:44:10.926Z,2.20
2018-05-31T07:46:39.013Z,2.63
2018-05-31T07:49:07.029Z,2.10
2018-05-31T07:51:35.031Z,3.60
2018-05-31T07:54:03.108Z,3.00
2018-05-31T07:56:31.115Z,3.27
2018-05-31T07:58:59.121Z,2.90
2018-05-31T08:01:27.156Z,2.77
2018-05-31T08:03:55.172Z,3.83
2018-05-31T08:06:23.246Z,2.87
2018-05-31T08:08:51.209Z,2.60
2018-05-31T08:11:19.359Z,2.37
2018-05-31T08:13:47.745Z,2.27
2018-05-31T08:16:15.777Z,3.03
2018-05-31T08:18:43.788Z,2.60
2018-05-31T08:21:11.869Z,2.20
2018-05-31T08:23:39.936Z,2.20
2018-05-31T08:26:07.960Z,1.80
2018-05-31T08:28:35.951Z,3.83
2018-05-31T08:31:04.223Z,3.20
2018-05-31T08:33:32.214Z,3.00
2018-05-31T08:36:00.228Z,2.13
2018-05-31T08:38:28.232Z,2.53
2018-05-31T08:40:56.248Z,2.00
2018-05-31T08:43:24.308Z,2.00
2018-05-31T08:45:52.338Z,1.80
2018-05-31T08:48:20.396Z,1.50
2018-05-31T08:50:48.422Z,1.57
2018-05-31T08:53:16.441Z,2.40
2018-05-31T08:55:44.455Z,2.30
2018-05-31T08:58:12.435Z,1.57
2018-05-31T09:00:40.467Z,2.30
2018-05-31T09:03:09.117Z,1.70
2018-05-31T09:05:38.105Z,2.10
2018-05-31T09:08:06.512Z,1.70
2018-05-31T09:10:34.963Z,1.47
2018-05-31T09:13:03.868Z,2.80
2018-05-31T09:15:32.473Z,1.80
2018-05-31T09:18:00.538Z,1.70
2018-05-31T09:20:28.582Z,1.50
2018-05-31T09:22:56.515Z,1.30
2018-05-31T09:25:24.489Z,1.07
2018-05-31T09:27:52.539Z,1.50
2018-05-31T09:30:20.529Z,1.30
2018-05-31T09:32:48.887Z,1.40
2018-05-31T09:35:16.945Z,4.13
2018-05-31T09:37:45.035Z,1.80
2018-05-31T09:40:13.011Z,1.40
2018-05-31T09:42:41.029Z,1.33
2018-05-31T09:45:09.075Z,1.27
2018-05-31T09:47:37.126Z,1.20
2018-05-31T09:50:05.122Z,1.00
2018-05-31T09:52:33.243Z,1.20
2018-05-31T09:55:01.335Z,1.13
2018-05-31T09:57:29.347Z,0.90
2018-05-31T09:59:57.378Z,1.10
2018-05-31T10:02:25.391Z,0.77
2018-05-31T10:04:53.414Z,0.93
2018-05-31T10:07:21.547Z,0.80
2018-05-31T10:09:49.525Z,0.87
2018-05-31T10:12:17.670Z,0.60
2018-05-31T10:14:45.729Z,0.80
2018-05-31T10:17:13.789Z,0.60
2018-05-31T10:19:41.794Z,0.60
2018-05-31T10:22:09.830Z,0.83
2018-05-31T10:24:37.846Z,0.57
2018-05-31T10:27:05.896Z,0.60
2018-05-31T10:29:33.895Z,0.60
2018-05-31T10:32:01.933Z,0.40
2018-05-31T10:34:30.488Z,0.60
2018-05-31T10:36:59.081Z,1.77
2018-05-31T10:39:27.552Z,1.07
2018-05-31T10:41:56.038Z,0.60
2018-05-31T10:44:24.567Z,0.30
2018-05-31T10:46:53.307Z,0.40
2018-05-31T10:49:21.754Z,0.80
2018-05-31T10:51:50.067Z,0.30
2018-05-31T10:54:18.562Z,0.60
2018-05-31T10:56:47.136Z,0.50
2018-05-31T10:59:15.653Z,0.40
2018-05-31T11:01:44.301Z,0.40
2018-05-31T11:04:12.816Z,0.70
2018-05-31T11:06:41.425Z,0.60
2018-05-31T11:09:10.057Z,0.50
2018-05-31T11:11:38.378Z,0.40
2018-05-31T11:14:07.125Z,0.50
2018-05-31T11:16:35.790Z,0.30
2018-05-31T11:19:04.283Z,0.50
2018-05-31T11:21:32.675Z,0.50
2018-05-31T11:24:01.329Z,0.73
2018-05-31T11:26:30.224Z,0.40
2018-05-31T11:28:59.012Z,0.50
2018-05-31T11:31:27.869Z,0.50
2018-05-31T11:33:56.186Z,0.47
2018-05-31T11:36:25.085Z,0.70
2018-05-31T11:38:53.645Z,0.80
2018-05-31T11:41:22.096Z,0.60
2018-05-31T11:43:50.732Z,0.43
2018-05-31T11:46:19.402Z,0.50
2018-05-31T11:48:48.078Z,0.60
2018-05-31T11:51:16.409Z,0.40
2018-05-31T11:53:44.938Z,0.40
2018-05-31T11:56:13.369Z,0.50
2018-05-31T11:58:41.914Z,0.40
2018-05-31T12:01:10.581Z,0.40
2018-05-31T12:03:39.160Z,0.50
2018-05-31T12:06:07.550Z,0.30
2018-05-31T12:08:36.132Z,0.30
2018-05-31T12:11:04.710Z,0.40
2018-05-31T12:13:33.295Z,0.40
2018-05-31T12:16:01.687Z,0.40
2018-05-31T12:18:30.355Z,0.40
2018-05-31T12:20:58.701Z,0.63
2018-05-31T12:23:27.453Z,0.70
2018-05-31T12:25:55.913Z,0.40
2018-05-31T12:28:24.408Z,0.50
2018-05-31T12:30:53.271Z,0.50
2018-05-31T12:33:22.001Z,0.40
2018-05-31T12:35:50.683Z,0.50
2018-05-31T12:38:19.007Z,0.40
2018-05-31T12:40:47.514Z,0.57
2018-05-31T12:43:16.386Z,0.83
2018-05-31T12:45:45.141Z,0.40
2018-05-31T12:48:13.557Z,0.40
2018-05-31T12:50:42.037Z,0.47
2018-05-31T12:53:10.614Z,0.40
2018-05-31T12:55:39.312Z,0.50
2018-05-31T12:58:07.998Z,0.70
2018-05-31T13:00:36.481Z,0.50
2018-05-31T13:03:04.945Z,0.50
2018-05-31T13:05:33.543Z,0.40
2018-05-31T13:08:02.139Z,0.50
2018-05-31T13:10:30.639Z,0.43
2018-05-31T13:12:59.172Z,0.50
2018-05-31T13:15:27.953Z,0.40
2018-05-31T13:17:56.340Z,0.40
2018-05-31T13:20:25.038Z,0.60
2018-05-31T13:22:53.718Z,0.40
2018-05-31T13:25:22.393Z,0.40
2018-05-31T13:27:50.893Z,0.40
2018-05-31T13:30:19.453Z,0.43
2018-05-31T13:32:47.952Z,1.33
2018-05-31T13:35:16.624Z,0.40
2018-05-31T13:37:45.219Z,0.50
2018-05-31T13:40:13.858Z,0.40
2018-05-31T13:42:42.373Z,0.50
2018-05-31T13:45:10.949Z,0.37
2018-05-31T13:47:38.930Z,0.47
2018-05-31T13:50:07.019Z,0.63
2018-05-31T13:52:35.103Z,1.00
2018-05-31T13:55:03.134Z,0.70
2018-05-31T13:57:31.162Z,0.40
2018-05-31T13:59:59.153Z,0.50
2018-05-31T14:02:27.824Z,0.50
2018-05-31T14:04:56.363Z,0.47
2018-05-31T14:07:25.062Z,0.50
2018-05-31T14:09:53.701Z,0.40
2018-05-31T14:12:22.202Z,0.50
2018-05-31T14:14:50.774Z,0.47
2018-05-31T14:17:19.256Z,0.50
2018-05-31T14:19:47.845Z,0.40
2018-05-31T14:22:16.215Z,0.50
2018-05-31T14:24:44.589Z,0.60
2018-05-31T14:27:13.176Z,0.70
2018-05-31T14:29:41.725Z,0.80
2018-05-31T14:32:10.254Z,0.50
2018-05-31T14:34:39.025Z,0.47
2018-05-31T14:37:07.340Z,0.37
2018-05-31T14:39:35.882Z,0.50
2018-05-31T14:42:04.851Z,0.50
2018-05-31T14:44:33.470Z,0.40
2018-05-31T14:47:01.967Z,0.50
2018-05-31T14:49:30.926Z,0.90
2018-05-31T14:51:59.681Z,0.60
2018-05-31T14:54:28.114Z,0.80
2018-05-31T14:56:56.780Z,0.67
2018-05-31T14:59:25.175Z,0.40
2018-05-31T15:01:53.813Z,0.40
2018-05-31T15:04:22.311Z,0.40
2018-05-31T15:06:50.832Z,0.63
2018-05-31T15:09:19.339Z,0.70
2018-05-31T15:11:47.982Z,0.70
2018-05-31T15:14:16.108Z,0.37
2018-05-31T15:16:44.372Z,0.40
2018-05-31T15:19:13.312Z,0.60
2018-05-31T15:21:41.988Z,0.50
2018-05-31T15:24:10.450Z,0.70
2018-05-31T15:26:39.150Z,1.00
2018-05-31T15:29:07.749Z,0.60
2018-05-31T15:31:36.241Z,0.63
2018-05-31T15:34:04.798Z,0.50
2018-05-31T15:36:33.195Z,0.70
2018-05-31T15:39:01.763Z,0.60
2018-05-31T15:41:30.455Z,0.70
2018-05-31T15:43:59.243Z,0.60
2018-05-31T15:46:27.737Z,0.60
2018-05-31T15:48:56.502Z,0.40
2018-05-31T15:51:24.906Z,0.70
2018-05-31T15:53:52.949Z,0.70
2018-05-31T15:56:21.444Z,0.60
2018-05-31T15:58:50.539Z,3.17
2018-05-31T16:01:18.949Z,1.40
2018-05-31T16:03:46.980Z,1.40
2018-05-31T16:06:15.020Z,1.00
2018-05-31T16:08:43.188Z,1.00
2018-05-31T16:11:11.243Z,1.33
2018-05-31T16:13:39.582Z,1.20
2018-05-31T16:16:08.360Z,0.93
2018-05-31T16:18:37.350Z,1.30
2018-05-31T16:21:06.020Z,1.10
2018-05-31T16:23:34.476Z,1.47
2018-05-31T16:26:02.990Z,1.17
2018-05-31T16:28:31.863Z,1.37
2018-05-31T16:31:00.331Z,1.40
2018-05-31T16:33:28.839Z,1.70
2018-05-31T16:35:57.419Z,1.20
2018-05-31T16:38:26.175Z,1.63
2018-05-31T16:40:54.692Z,1.80
2018-05-31T16:43:23.312Z,1.53
2018-05-31T16:45:52.365Z,1.27
2018-05-31T16:48:20.953Z,1.70
2018-05-31T16:50:49.450Z,1.70
2018-05-31T16:53:18.015Z,1.70
2018-05-31T16:55:46.521Z,1.07
2018-05-31T16:58:15.510Z,1.73
2018-05-31T17:00:43.597Z,1.40
2018-05-31T17:03:11.618Z,1.70
2018-05-31T17:05:39.634Z,1.57
2018-05-31T17:08:07.631Z,2.37
2018-05-31T17:10:35.719Z,2.40
2018-05-31T17:13:03.712Z,1.70
2018-05-31T17:15:31.753Z,1.60
2018-05-31T17:17:59.784Z,1.93
2018-05-31T17:20:27.827Z,2.40
2018-05-31T17:22:55.879Z,2.30
2018-05-31T17:25:23.916Z,2.37
2018-05-31T17:27:51.962Z,2.17
2018-05-31T17:30:19.999Z,1.80
2018-05-31T17:32:48.004Z,2.17
2018-05-31T17:35:16.090Z,1.97
2018-05-31T17:37:44.091Z,1.77
2018-05-31T17:40:12.103Z,2.03
2018-05-31T17:42:40.148Z,1.83
2018-05-31T17:45:08.235Z,3.10
2018-05-31T17:47:36.617Z,2.10
2018-05-31T17:50:04.590Z,2.10
2018-05-31T17:52:32.639Z,2.27
2018-05-31T17:55:00.697Z,2.27
2018-05-31T17:57:28.682Z,2.37
2018-05-31T17:59:56.661Z,2.10
2018-05-31T18:02:24.681Z,2.80
2018-05-31T18:04:52.763Z,2.70
2018-05-31T18:07:20.769Z,2.77
2018-05-31T18:09:48.824Z,2.10
2018-05-31T18:12:16.841Z,2.10
2018-05-31T18:14:44.906Z,1.90
2018-05-31T18:17:12.955Z,2.00
2018-05-31T18:19:41.013Z,3.10
2018-05-31T18:22:09.040Z,3.07
2018-05-31T18:24:37.071Z,2.97
2018-05-31T18:27:05.128Z,2.73
2018-05-31T18:29:33.171Z,2.63
2018-05-31T18:32:01.208Z,2.33
2018-05-31T18:34:29.216Z,2.90
2018-05-31T18:36:57.224Z,4.07
2018-05-31T18:39:25.310Z,2.50
2018-05-31T18:41:53.371Z,2.30
2018-05-31T18:44:21.435Z,2.70
2018-05-31T18:46:49.557Z,4.27
2018-05-31T18:49:17.946Z,2.60
2018-05-31T18:51:46.019Z,2.67
2018-05-31T18:54:14.139Z,2.57
2018-05-31T18:56:42.125Z,2.10
2018-05-31T18:59:10.238Z,2.37
2018-05-31T19:01:38.490Z,2.57
2018-05-31T19:04:06.658Z,2.30
2018-05-31T19:06:34.712Z,2.67
2018-05-31T19:09:02.716Z,2.60
2018-05-31T19:11:30.888Z,2.37
2018-05-31T19:13:59.158Z,2.23
2018-05-31T19:16:27.224Z,2.20
2018-05-31T19:19:00.928Z,3.20
2018-05-31T19:21:28.916Z,1.80
2018-05-31T19:23:57.088Z,2.20
2018-05-31T19:26:25.208Z,2.40
2018-05-31T19:28:53.313Z,2.93
2018-05-31T19:31:21.363Z,2.07
2018-05-31T19:33:49.508Z,1.87
2018-05-31T19:36:23.246Z,2.50
2018-05-31T19:38:51.329Z,2.40
2018-05-31T19:41:19.484Z,1.90
2018-05-31T19:43:53.045Z,2.50
2018-05-31T19:46:21.113Z,2.70
2018-05-31T19:48:49.228Z,1.80
2018-05-31T19:54:25.777Z,2.30
2018-05-31T19:56:53.785Z,2.57
2018-05-31T19:59:27.381Z,2.90
2018-05-31T20:02:01.916Z,2.47
2018-05-31T20:04:30.033Z,2.27
2018-05-31T20:06:58.165Z,2.17
2018-05-31T20:09:26.385Z,3.27
2018-05-31T20:11:54.549Z,1.83
2018-05-31T20:14:22.686Z,2.40
2018-05-31T20:16:50.749Z,2.37
2018-05-31T20:19:19.291Z,1.93
2018-05-31T20:21:47.670Z,2.40
2018-05-31T20:24:16.523Z,1.70
2018-05-31T20:26:45.446Z,2.20
2018-05-31T20:29:13.611Z,2.03
2018-05-31T20:31:41.655Z,2.73
2018-05-31T20:34:10.244Z,1.77
2018-05-31T20:36:38.913Z,2.40
2018-05-31T20:39:07.325Z,1.83
2018-05-31T20:41:35.803Z,3.80
2018-05-31T20:44:04.657Z,2.63
2018-05-31T20:46:32.680Z,2.70
2018-05-31T20:49:00.780Z,2.70
2018-05-31T20:51:28.738Z,2.77
2018-05-31T20:53:57.173Z,2.20
2018-05-31T20:56:25.162Z,2.37
2018-05-31T20:58:53.218Z,2.13
2018-05-31T21:01:21.199Z,2.10
2018-05-31T21:03:49.214Z,2.07
2018-05-31T21:06:17.326Z,2.67
2018-05-31T21:08:45.300Z,1.50
2018-05-31T21:11:13.326Z,2.50
2018-05-31T21:13:41.366Z,2.57
2018-05-31T21:16:09.413Z,2.43
2018-05-31T21:18:37.454Z,2.50
2018-05-31T21:21:05.459Z,2.40
2018-05-31T21:23:33.472Z,2.30
2018-05-31T21:26:01.532Z,2.27
2018-05-31T21:28:29.634Z,2.57
2018-05-31T21:30:57.688Z,2.23
2018-05-31T21:33:25.719Z,2.33
2018-05-31T21:35:53.799Z,2.40
2018-05-31T21:38:21.851Z,1.90
2018-05-31T21:40:49.887Z,1.80
2018-05-31T21:43:17.891Z,1.97
2018-05-31T21:45:45.925Z,2.33
2018-05-31T21:48:13.948Z,2.77
2018-05-31T21:50:41.983Z,2.60
2018-05-31T21:53:10.032Z,2.23
2018-05-31T21:55:38.536Z,2.10
2018-05-31T21:58:06.587Z,2.00
2018-05-31T22:00:41.222Z,2.57
2018-05-31T22:03:09.267Z,2.20
2018-05-31T22:05:37.455Z,3.27
2018-05-31T22:08:05.528Z,2.03
2018-05-31T22:10:34.597Z,3.00
2018-05-31T22:13:03.266Z,2.70
2018-05-31T22:15:31.331Z,2.40
2018-05-31T22:17:59.456Z,2.60
2018-05-31T22:20:27.535Z,2.07
2018-05-31T22:22:55.565Z,3.00
2018-05-31T22:25:23.674Z,2.90
2018-05-31T22:27:51.796Z,2.07
2018-05-31T22:30:19.770Z,2.10
2018-05-31T22:32:47.730Z,1.93
2018-05-31T22:35:15.746Z,1.70
2018-05-31T22:37:43.760Z,2.17
2018-05-31T22:40:11.811Z,2.23
2018-05-31T22:42:39.797Z,1.93
2018-05-31T22:45:07.831Z,2.10
2018-05-31T22:47:35.803Z,1.93
2018-05-31T22:50:03.888Z,2.40
2018-05-31T22:52:31.926Z,2.30
2018-05-31T22:54:59.953Z,1.93
2018-05-31T22:57:28.212Z,2.97
2018-05-31T22:59:56.235Z,1.90
2018-05-31T23:02:24.277Z,2.10
2018-05-31T23:04:52.273Z,1.87
2018-05-31T23:07:20.315Z,2.20
2018-05-31T23:09:48.326Z,1.50
2018-05-31T23:12:16.400Z,2.27
2018-05-31T23:14:44.345Z,2.23
2018-05-31T23:17:12.377Z,1.50
2018-05-31T23:19:40.417Z,1.73
2018-05-31T23:22:08.507Z,1.83
2018-05-31T23:24:36.587Z,2.20
2018-05-31T23:27:04.618Z,1.90
2018-05-31T23:29:32.629Z,2.20
2018-05-31T23:32:00.640Z,2.30
2018-05-31T23:34:28.653Z,2.10
2018-05-31T23:36:56.682Z,1.93
2018-05-31T23:39:24.809Z,1.50
2018-05-31T23:41:52.765Z,1.77
2018-05-31T23:44:20.754Z,1.77
2018-05-31T23:46:48.830Z,1.57
2018-05-31T23:49:16.826Z,1.60
2018-05-31T23:51:44.811Z,1.60
2018-05-31T23:54:12.804Z,1.83
2018-05-31T23:56:40.877Z,1.50
2018-05-31T23:59:09.208Z,2.40
